Aérodrome :
LOGIN :

S'inscrire | Disclaimer

   EN    FR    IT 

 










Légende :    VFR   VFR Marginal   IFR   IFR Intensif   IFR Très Intensif
Visi : 
Plafond : 
>= 8 km
>= 3000ft
5 à 8 km
1000 à 3000 ft
1500m à 5 km
500 à 1000 ft
800 à 1500m
200 à 500 ft
< 800m
< 200 ft
Symboles :   Orages  Brouillard  Fortes neiges  Fortes précipitations  Vent > 20 kt
SIGMETs :   Divers  Orages  Givrage  Turbulence  Onde Orograph.  Cendres Volcan.







- Altitude de l'aérodrome : 162 ft
- Code IATA : BOD
- Voir les cartes d'approche


LFBD - Bordeaux / Merignac

DERNIER METAR :
  • 200730Z AUTO VRB02KT 4700 BR OVC011 05/04 Q1025 TEMPO VV/// BECMG 9999 NSW

METARs EXPIRÉS :
  • 200700Z AUTO 11003KT 4900 BR OVC009 04/04 Q1025 TEMPO 0300 FG VV///
  • 200630Z AUTO VRB03KT 4700 BR OVC009 04/04 Q1025 TEMPO 0300 FG VV///
  • 200600Z AUTO 11003KT 3700 BR FEW003 OVC009 04/04 Q1025 TEMPO 0300 FG VV///
  • 200530Z AUTO 00000KT 3300 0450 R23/P2300 R05/0500D R29/P2300 BCFG OVC004 03/03 Q1025 TEMPO 0300 FG VV///
  • 200500Z AUTO 13004KT 3000 BR SCT003 02/02 Q1025 TEMPO 0300 FG VV///

TAF TAF LFBD
Valide du 20 à 06h jusqu'au 21 à 12h UTC


200500Z 2006/2112 12004KT 3000 BR BKN005
PROB40
TEMPO 2006/2009 0300 FG VV///
BECMG 2009/2011 9999 NSW
BECMG 2011/2013 CAVOK
BECMG 2019/2021 4000 BR
TEMPO 2100/2109 0300 FG VV///
BECMG 2109/2111 CAVOK TX13/2015Z TN02/2006Z
ATIS : +33 5 57 92 81 04
Pas de NOTAMs connus pour ce terrain.



MET'MAP, la Météo Aéronautique d'un coup d'oeil ! - Copyright ORBIFLY Décembre 2007 - Disclaimer

ORBIFLY MET'MAP TEAM :

Programmation & Développement : Alexandra Zaïnal
Conception & Développement : Baudouin d'Aumeries
Co-Programmation & Développement : Marc-Olivier Méhu
Soutien technique & logistique : Manuel Goepfert

Contact : metmap@orbifly.com




SOURCES & CREDITS :

   NOAA